sensor_id;sensor_type;location;lat;lon;timestamp;pressure;altitude;pressure_sealevel;temperature;humidity
3294;BME280;1659;51.470;6.770;2023-04-25T00:01:22;100848.63;;;6.82;86.40
3294;BME280;1659;51.470;6.770;2023-04-25T00:03:49;100846.88;;;6.79;85.48
3294;BME280;1659;51.470;6.770;2023-04-25T00:06:16;100842.50;;;6.77;85.66
3294;BME280;1659;51.470;6.770;2023-04-25T00:08:44;100835.50;;;6.74;85.94
3294;BME280;1659;51.470;6.770;2023-04-25T00:11:10;100831.13;;;6.72;85.72
3294;BME280;1659;51.470;6.770;2023-04-25T00:13:37;100839.91;;;6.69;86.42
3294;BME280;1659;51.470;6.770;2023-04-25T00:16:06;100840.75;;;6.65;86.36
3294;BME280;1659;51.470;6.770;2023-04-25T00:18:33;100847.78;;;6.65;86.92
3294;BME280;1659;51.470;6.770;2023-04-25T00:21:00;100846.91;;;6.64;86.52
3294;BME280;1659;51.470;6.770;2023-04-25T00:23:26;100844.28;;;6.63;86.28
3294;BME280;1659;51.470;6.770;2023-04-25T00:25:54;100844.28;;;6.63;86.31
3294;BME280;1659;51.470;6.770;2023-04-25T00:28:20;100847.78;;;6.61;86.79
3294;BME280;1659;51.470;6.770;2023-04-25T00:30:47;100845.16;;;6.60;86.96
3294;BME280;1659;51.470;6.770;2023-04-25T00:33:13;100851.28;;;6.59;86.94
3294;BME280;1659;51.470;6.770;2023-04-25T00:35:40;100846.91;;;6.59;86.72
3294;BME280;1659;51.470;6.770;2023-04-25T00:38:07;100853.03;;;6.60;86.95
3294;BME280;1659;51.470;6.770;2023-04-25T00:40:33;100850.41;;;6.61;86.49
3294;BME280;1659;51.470;6.770;2023-04-25T00:43:01;100850.41;;;6.63;86.71
3294;BME280;1659;51.470;6.770;2023-04-25T00:45:28;100854.75;;;6.66;86.88
3294;BME280;1659;51.470;6.770;2023-04-25T00:47:56;100853.91;;;6.67;86.75
3294;BME280;1659;51.470;6.770;2023-04-25T00:50:25;100852.13;;;6.69;86.98
3294;BME280;1659;51.470;6.770;2023-04-25T00:59:45;100860.03;;;6.72;87.68
3294;BME280;1659;51.470;6.770;2023-04-25T01:02:12;100853.00;;;6.74;87.64
3294;BME280;1659;51.470;6.770;2023-04-25T01:04:38;100851.25;;;6.74;87.90
3294;BME280;1659;51.470;6.770;2023-04-25T01:07:05;100859.13;;;6.74;87.71
3294;BME280;1659;51.470;6.770;2023-04-25T01:09:32;100856.50;;;6.74;87.26
3294;BME280;1659;51.470;6.770;2023-04-25T01:11:58;100864.38;;;6.76;87.08
3294;BME280;1659;51.470;6.770;2023-04-25T01:14:25;100859.13;;;6.77;87.41
3294;BME280;1659;51.470;6.770;2023-04-25T01:16:53;100854.78;;;6.78;88.08
3294;BME280;1659;51.470;6.770;2023-04-25T01:19:20;100854.78;;;6.78;87.26
3294;BME280;1659;51.470;6.770;2023-04-25T01:21:53;100855.63;;;6.77;87.67
3294;BME280;1659;51.470;6.770;2023-04-25T01:24:39;100866.16;;;6.80;87.61
3294;BME280;1659;51.470;6.770;2023-04-25T01:27:06;100865.25;;;6.81;88.07
3294;BME280;1659;51.470;6.770;2023-04-25T01:29:34;100857.38;;;6.83;87.68
3294;BME280;1659;51.470;6.770;2023-04-25T01:32:10;100871.38;;;6.85;87.40
3294;BME280;1659;51.470;6.770;2023-04-25T01:34:39;100858.22;;;6.85;87.63
3294;BME280;1659;51.470;6.770;2023-04-25T01:37:11;100874.00;;;6.86;87.98
3294;BME280;1659;51.470;6.770;2023-04-25T01:39:38;100872.22;;;6.88;87.53
3294;BME280;1659;51.470;6.770;2023-04-25T01:42:05;100876.63;;;6.91;88.08
3294;BME280;1659;51.470;6.770;2023-04-25T01:44:33;100880.13;;;6.93;88.27
3294;BME280;1659;51.470;6.770;2023-04-25T01:46:59;100868.75;;;6.92;87.66
3294;BME280;1659;51.470;6.770;2023-04-25T01:49:26;100877.50;;;6.94;88.34
3294;BME280;1659;51.470;6.770;2023-04-25T01:51:52;100872.25;;;6.96;87.49
3294;BME280;1659;51.470;6.770;2023-04-25T01:54:21;100882.75;;;6.96;88.60
3294;BME280;1659;51.470;6.770;2023-04-25T01:56:50;100884.47;;;6.97;87.58
3294;BME280;1659;51.470;6.770;2023-04-25T01:59:18;100891.50;;;6.98;88.29
3294;BME280;1659;51.470;6.770;2023-04-25T02:01:45;100892.38;;;7.00;88.13
3294;BME280;1659;51.470;6.770;2023-04-25T02:04:11;100895.84;;;7.00;88.58
3294;BME280;1659;51.470;6.770;2023-04-25T02:06:38;100895.88;;;6.99;87.92
3294;BME280;1659;51.470;6.770;2023-04-25T02:09:04;100895.00;;;6.98;88.40
3294;BME280;1659;51.470;6.770;2023-04-25T02:11:32;100904.63;;;6.99;88.49
3294;BME280;1659;51.470;6.770;2023-04-25T02:13:59;100900.25;;;6.98;88.22
3294;BME280;1659;51.470;6.770;2023-04-25T02:16:25;100903.78;;;6.97;88.72
3294;BME280;1659;51.470;6.770;2023-04-25T02:18:52;100903.78;;;6.97;88.46
3294;BME280;1659;51.470;6.770;2023-04-25T02:21:19;100900.28;;;6.95;88.82
3294;BME280;1659;51.470;6.770;2023-04-25T02:23:45;100902.00;;;6.95;88.96
3294;BME280;1659;51.470;6.770;2023-04-25T02:26:14;100898.50;;;6.96;88.88
3294;BME280;1659;51.470;6.770;2023-04-25T02:28:42;100905.53;;;6.95;89.00
3294;BME280;1659;51.470;6.770;2023-04-25T02:31:08;100909.03;;;6.94;88.85
3294;BME280;1659;51.470;6.770;2023-04-25T02:33:35;100902.00;;;6.93;88.60
3294;BME280;1659;51.470;6.770;2023-04-25T02:36:01;100912.53;;;6.90;88.98
3294;BME280;1659;51.470;6.770;2023-04-25T02:38:28;100914.25;;;6.90;89.35
3294;BME280;1659;51.470;6.770;2023-04-25T02:40:55;100911.63;;;6.90;88.73
3294;BME280;1659;51.470;6.770;2023-04-25T02:43:21;100909.91;;;6.90;89.40
3294;BME280;1659;51.470;6.770;2023-04-25T02:45:53;100910.78;;;6.92;88.95
3294;BME280;1659;51.470;6.770;2023-04-25T02:48:22;100915.13;;;6.92;89.17
3294;BME280;1659;51.470;6.770;2023-04-25T02:54:43;100916.91;;;6.93;89.32
3294;BME280;1659;51.470;6.770;2023-04-25T02:57:58;100918.66;;;6.91;89.77
3294;BME280;1659;51.470;6.770;2023-04-25T03:10:45;100918.69;;;6.80;89.86
3294;BME280;1659;51.470;6.770;2023-04-25T03:16:58;100912.56;;;6.78;90.04
3294;BME280;1659;51.470;6.770;2023-04-25T03:19:25;100923.06;;;6.78;90.03
3294;BME280;1659;51.470;6.770;2023-04-25T03:21:52;100911.66;;;6.76;89.37
3294;BME280;1659;51.470;6.770;2023-04-25T03:24:18;100921.28;;;6.75;90.10
3294;BME280;1659;51.470;6.770;2023-04-25T03:26:47;100922.16;;;6.74;89.76
3294;BME280;1659;51.470;6.770;2023-04-25T03:29:13;100918.66;;;6.74;89.87
3294;BME280;1659;51.470;6.770;2023-04-25T03:31:40;100923.91;;;6.72;89.78
3294;BME280;1659;51.470;6.770;2023-04-25T03:34:06;100923.03;;;6.72;90.66
3294;BME280;1659;51.470;6.770;2023-04-25T03:36:33;100923.03;;;6.72;89.97
3294;BME280;1659;51.470;6.770;2023-04-25T03:39:00;100926.53;;;6.71;90.17
3294;BME280;1659;51.470;6.770;2023-04-25T03:41:26;100922.19;;;6.71;90.83
3294;BME280;1659;51.470;6.770;2023-04-25T03:43:59;100916.03;;;6.71;89.94
3294;BME280;1659;51.470;6.770;2023-04-25T03:46:25;100921.28;;;6.71;90.15
3294;BME280;1659;51.470;6.770;2023-04-25T03:48:55;100923.03;;;6.69;90.42
3294;BME280;1659;51.470;6.770;2023-04-25T03:51:31;100932.69;;;6.68;90.45
3294;BME280;1659;51.470;6.770;2023-04-25T03:53:58;100930.91;;;6.67;90.60
3294;BME280;1659;51.470;6.770;2023-04-25T03:56:37;100933.53;;;6.67;90.29
3294;BME280;1659;51.470;6.770;2023-04-25T03:59:06;100930.03;;;6.65;90.68
3294;BME280;1659;51.470;6.770;2023-04-25T04:01:33;100932.69;;;6.65;90.29
3294;BME280;1659;51.470;6.770;2023-04-25T04:04:00;100937.91;;;6.62;90.92
3294;BME280;1659;51.470;6.770;2023-04-25T04:06:27;100938.78;;;6.56;90.63
3294;BME280;1659;51.470;6.770;2023-04-25T04:08:54;100940.56;;;6.54;90.88
3294;BME280;1659;51.470;6.770;2023-04-25T04:11:20;100940.53;;;6.50;90.50
3294;BME280;1659;51.470;6.770;2023-04-25T04:13:47;100951.91;;;6.46;90.25
3294;BME280;1659;51.470;6.770;2023-04-25T04:16:15;100946.69;;;6.38;90.60
3294;BME280;1659;51.470;6.770;2023-04-25T04:18:41;100956.28;;;6.33;90.37
3294;BME280;1659;51.470;6.770;2023-04-25T04:21:08;100954.50;;;6.27;90.91
3294;BME280;1659;51.470;6.770;2023-04-25T04:23:34;100954.50;;;6.22;90.51
3294;BME280;1659;51.470;6.770;2023-04-25T04:26:02;100958.00;;;6.17;90.71
3294;BME280;1659;51.470;6.770;2023-04-25T04:28:29;100959.75;;;6.12;90.85
3294;BME280;1659;51.470;6.770;2023-04-25T04:30:56;100961.47;;;6.10;91.08
3294;BME280;1659;51.470;6.770;2023-04-25T04:33:24;100962.34;;;6.07;90.83
3294;BME280;1659;51.470;6.770;2023-04-25T04:35:51;100963.19;;;6.06;90.57
3294;BME280;1659;51.470;6.770;2023-04-25T04:38:18;100968.47;;;6.03;90.44
3294;BME280;1659;51.470;6.770;2023-04-25T04:40:46;100969.31;;;5.99;90.63
3294;BME280;1659;51.470;6.770;2023-04-25T04:43:13;100970.19;;;5.96;90.66
3294;BME280;1659;51.470;6.770;2023-04-25T04:45:42;100970.13;;;5.95;90.64
3294;BME280;1659;51.470;6.770;2023-04-25T04:48:09;100971.88;;;5.91;90.74
3294;BME280;1659;51.470;6.770;2023-04-25T04:50:38;100980.59;;;5.89;90.42
3294;BME280;1659;51.470;6.770;2023-04-25T04:53:05;100984.09;;;5.86;90.39
3294;BME280;1659;51.470;6.770;2023-04-25T04:55:32;100983.19;;;5.81;90.58
3294;BME280;1659;51.470;6.770;2023-04-25T04:57:58;100986.69;;;5.77;90.68
3294;BME280;1659;51.470;6.770;2023-04-25T05:00:25;100998.03;;;5.76;90.70
3294;BME280;1659;51.470;6.770;2023-04-25T05:02:52;101002.41;;;5.74;90.93
3294;BME280;1659;51.470;6.770;2023-04-25T05:05:18;100995.38;;;5.73;90.99
3294;BME280;1659;51.470;6.770;2023-04-25T05:07:46;100999.78;;;5.75;90.82
3294;BME280;1659;51.470;6.770;2023-04-25T05:10:13;100998.91;;;5.78;90.77
3294;BME280;1659;51.470;6.770;2023-04-25T05:12:40;101004.19;;;5.84;90.65
3294;BME280;1659;51.470;6.770;2023-04-25T05:15:07;101008.56;;;5.88;90.31
3294;BME280;1659;51.470;6.770;2023-04-25T05:17:34;101008.59;;;5.90;90.51
3294;BME280;1659;51.470;6.770;2023-04-25T05:20:00;101016.50;;;5.94;90.55
3294;BME280;1659;51.470;6.770;2023-04-25T05:22:27;101015.66;;;5.98;90.38
3294;BME280;1659;51.470;6.770;2023-04-25T05:24:55;101013.94;;;6.05;90.67
3294;BME280;1659;51.470;6.770;2023-04-25T05:27:21;101015.72;;;6.12;90.33
3294;BME280;1659;51.470;6.770;2023-04-25T05:29:48;101020.09;;;6.19;90.47
3294;BME280;1659;51.470;6.770;2023-04-25T05:32:14;101031.53;;;6.29;90.37
3294;BME280;1659;51.470;6.770;2023-04-25T05:34:41;101026.28;;;6.37;90.38
3294;BME280;1659;51.470;6.770;2023-04-25T05:37:08;101033.28;;;6.44;90.20
3294;BME280;1659;51.470;6.770;2023-04-25T05:39:34;101031.56;;;6.51;90.79
3294;BME280;1659;51.470;6.770;2023-04-25T05:42:02;101029.81;;;6.56;90.70
3294;BME280;1659;51.470;6.770;2023-04-25T05:44:30;101027.19;;;6.64;90.12
3294;BME280;1659;51.470;6.770;2023-04-25T05:46:56;101028.97;;;6.71;90.64
3294;BME280;1659;51.470;6.770;2023-04-25T05:49:23;101037.75;;;6.80;91.02
3294;BME280;1659;51.470;6.770;2023-04-25T05:51:49;101043.00;;;6.90;90.38
3294;BME280;1659;51.470;6.770;2023-04-25T05:54:16;101052.66;;;6.92;90.26
3294;BME280;1659;51.470;6.770;2023-04-25T05:56:42;101060.50;;;6.98;90.74
3294;BME280;1659;51.470;6.770;2023-04-25T05:59:10;101057.00;;;7.06;90.11
3294;BME280;1659;51.470;6.770;2023-04-25T06:01:37;101062.28;;;7.12;90.40
3294;BME280;1659;51.470;6.770;2023-04-25T06:04:03;101068.44;;;7.20;89.94
3294;BME280;1659;51.470;6.770;2023-04-25T06:06:30;101067.53;;;7.26;89.78
3294;BME280;1659;51.470;6.770;2023-04-25T06:08:57;101072.78;;;7.35;89.25
3294;BME280;1659;51.470;6.770;2023-04-25T06:11:23;101070.16;;;7.36;89.21
3294;BME280;1659;51.470;6.770;2023-04-25T06:13:50;101075.44;;;7.41;89.27
3294;BME280;1659;51.470;6.770;2023-04-25T06:16:18;101072.78;;;7.44;88.98
3294;BME280;1659;51.470;6.770;2023-04-25T06:18:44;101066.63;;;7.54;88.55
3294;BME280;1659;51.470;6.770;2023-04-25T06:21:11;101076.25;;;7.65;87.93
3294;BME280;1659;51.470;6.770;2023-04-25T06:23:37;101067.47;;;7.70;87.26
3294;BME280;1659;51.470;6.770;2023-04-25T06:26:04;101073.53;;;8.00;87.33
3294;BME280;1659;51.470;6.770;2023-04-25T06:28:30;101075.13;;;8.41;86.18
3294;BME280;1659;51.470;6.770;2023-04-25T06:30:57;101069.75;;;8.66;85.70
3294;BME280;1659;51.470;6.770;2023-04-25T06:33:25;101074.09;;;8.75;85.54
3294;BME280;1659;51.470;6.770;2023-04-25T06:35:52;101078.56;;;8.62;85.18
3294;BME280;1659;51.470;6.770;2023-04-25T06:38:18;101083.94;;;8.43;84.98
3294;BME280;1659;51.470;6.770;2023-04-25T06:40:45;101088.34;;;8.32;86.16
3294;BME280;1659;51.470;6.770;2023-04-25T06:43:11;101087.50;;;8.27;87.16
3294;BME280;1659;51.470;6.770;2023-04-25T06:45:38;101088.41;;;8.15;86.78
3294;BME280;1659;51.470;6.770;2023-04-25T06:48:05;101073.47;;;8.14;86.86
3294;BME280;1659;51.470;6.770;2023-04-25T06:50:33;101084.00;;;8.16;86.95
3294;BME280;1659;51.470;6.770;2023-04-25T06:52:59;101084.88;;;8.18;86.96
3294;BME280;1659;51.470;6.770;2023-04-25T06:55:27;101086.63;;;8.19;85.89
3294;BME280;1659;51.470;6.770;2023-04-25T06:57:53;101091.94;;;8.12;86.23
3294;BME280;1659;51.470;6.770;2023-04-25T07:00:20;101091.03;;;8.09;86.25
3294;BME280;1659;51.470;6.770;2023-04-25T07:02:47;101095.44;;;8.11;86.20
3294;BME280;1659;51.470;6.770;2023-04-25T07:05:14;101101.59;;;8.07;85.63
3294;BME280;1659;51.470;6.770;2023-04-25T07:07:42;101113.88;;;8.07;85.49
3294;BME280;1659;51.470;6.770;2023-04-25T07:10:09;101112.13;;;8.07;86.16
3294;BME280;1659;51.470;6.770;2023-04-25T07:12:35;101106.72;;;8.52;85.81
3294;BME280;1659;51.470;6.770;2023-04-25T07:15:02;101106.56;;;9.90;82.51
3294;BME280;1659;51.470;6.770;2023-04-25T07:17:31;101106.56;;;11.23;80.21
3294;BME280;1659;51.470;6.770;2023-04-25T07:19:58;101094.88;;;12.33;78.39
3294;BME280;1659;51.470;6.770;2023-04-25T07:22:25;101095.31;;;12.94;77.51
3294;BME280;1659;51.470;6.770;2023-04-25T07:24:55;101102.09;;;13.08;76.22
3294;BME280;1659;51.470;6.770;2023-04-25T07:27:21;101102.97;;;13.07;77.27
3294;BME280;1659;51.470;6.770;2023-04-25T07:29:48;101105.97;;;12.91;76.63
3294;BME280;1659;51.470;6.770;2023-04-25T07:32:17;101105.09;;;12.53;77.88
3294;BME280;1659;51.470;6.770;2023-04-25T07:34:49;101113.06;;;12.52;76.58
3294;BME280;1659;51.470;6.770;2023-04-25T07:37:18;101110.81;;;12.32;78.41
3294;BME280;1659;51.470;6.770;2023-04-25T07:39:47;101117.25;;;12.20;78.87
3294;BME280;1659;51.470;6.770;2023-04-25T07:42:15;101118.84;;;12.28;79.14
3294;BME280;1659;51.470;6.770;2023-04-25T07:44:42;101127.91;;;12.17;78.82
3294;BME280;1659;51.470;6.770;2023-04-25T07:47:09;101119.22;;;12.52;78.15
3294;BME280;1659;51.470;6.770;2023-04-25T07:49:39;101133.53;;;12.43;77.62
3294;BME280;1659;51.470;6.770;2023-04-25T07:52:06;101135.34;;;12.43;78.51
3294;BME280;1659;51.470;6.770;2023-04-25T07:57:20;101127.13;;;12.94;77.03
3294;BME280;1659;51.470;6.770;2023-04-25T08:00:07;101128.06;;;12.93;76.28
3294;BME280;1659;51.470;6.770;2023-04-25T08:02:37;101141.88;;;12.69;76.93
3294;BME280;1659;51.470;6.770;2023-04-25T08:05:04;101140.56;;;12.88;75.85
3294;BME280;1659;51.470;6.770;2023-04-25T08:07:44;101146.25;;;13.09;75.15
3294;BME280;1659;51.470;6.770;2023-04-25T08:10:24;101152.47;;;13.47;75.00
3294;BME280;1659;51.470;6.770;2023-04-25T08:12:52;101153.47;;;13.43;74.13
3294;BME280;1659;51.470;6.770;2023-04-25T08:15:19;101156.94;;;13.07;74.07
3294;BME280;1659;51.470;6.770;2023-04-25T08:17:51;101158.88;;;12.99;74.83
3294;BME280;1659;51.470;6.770;2023-04-25T08:20:18;101160.34;;;13.12;72.79
3294;BME280;1659;51.470;6.770;2023-04-25T08:22:44;101161.84;;;13.24;73.78
3294;BME280;1659;51.470;6.770;2023-04-25T08:25:11;101168.47;;;13.44;73.09
3294;BME280;1659;51.470;6.770;2023-04-25T08:27:37;101169.13;;;13.16;72.36
3294;BME280;1659;51.470;6.770;2023-04-25T08:30:07;101171.72;;;12.77;72.95
3294;BME280;1659;51.470;6.770;2023-04-25T08:32:34;101176.41;;;12.65;73.25
3294;BME280;1659;51.470;6.770;2023-04-25T08:35:03;101187.22;;;12.55;73.62
3294;BME280;1659;51.470;6.770;2023-04-25T08:37:30;101185.63;;;12.46;73.85
3294;BME280;1659;51.470;6.770;2023-04-25T08:39:57;101191.63;;;12.09;73.99
3294;BME280;1659;51.470;6.770;2023-04-25T08:42:24;101198.19;;;11.86;74.74
3294;BME280;1659;51.470;6.770;2023-04-25T08:44:53;101197.47;;;11.75;74.38
3294;BME280;1659;51.470;6.770;2023-04-25T08:47:23;101199.25;;;11.76;74.77
3294;BME280;1659;51.470;6.770;2023-04-25T08:49:53;101200.09;;;11.78;73.42
3294;BME280;1659;51.470;6.770;2023-04-25T08:52:22;101209.00;;;11.73;72.87
3294;BME280;1659;51.470;6.770;2023-04-25T08:54:49;101205.66;;;11.61;73.57
3294;BME280;1659;51.470;6.770;2023-04-25T08:57:17;101208.72;;;11.91;71.98
3294;BME280;1659;51.470;6.770;2023-04-25T08:59:45;101212.16;;;11.96;70.50
3294;BME280;1659;51.470;6.770;2023-04-25T09:02:13;101214.88;;;11.92;72.28
3294;BME280;1659;51.470;6.770;2023-04-25T09:04:44;101219.34;;;12.39;71.58
3294;BME280;1659;51.470;6.770;2023-04-25T09:07:10;101229.59;;;12.56;70.76
3294;BME280;1659;51.470;6.770;2023-04-25T09:09:37;101231.53;;;12.93;71.33
3294;BME280;1659;51.470;6.770;2023-04-25T09:12:05;101224.34;;;13.39;67.86
3294;BME280;1659;51.470;6.770;2023-04-25T09:14:31;101229.81;;;13.70;68.54
3294;BME280;1659;51.470;6.770;2023-04-25T09:17:00;101233.69;;;14.26;67.42
3294;BME280;1659;51.470;6.770;2023-04-25T09:19:29;101236.19;;;14.66;67.34
3294;BME280;1659;51.470;6.770;2023-04-25T09:21:59;101233.56;;;14.96;67.22
3294;BME280;1659;51.470;6.770;2023-04-25T09:24:36;101242.41;;;15.26;66.52
3294;BME280;1659;51.470;6.770;2023-04-25T09:27:03;101233.19;;;15.08;65.90
3294;BME280;1659;51.470;6.770;2023-04-25T09:29:40;101239.72;;;14.67;66.82
3294;BME280;1659;51.470;6.770;2023-04-25T09:32:15;101242.59;;;14.58;67.48
3294;BME280;1659;51.470;6.770;2023-04-25T09:34:43;101247.94;;;14.58;67.19
3294;BME280;1659;51.470;6.770;2023-04-25T09:37:11;101243.28;;;14.66;66.48
3294;BME280;1659;51.470;6.770;2023-04-25T09:39:38;101249.56;;;14.63;66.67
3294;BME280;1659;51.470;6.770;2023-04-25T09:42:05;101254.34;;;14.50;67.04
3294;BME280;1659;51.470;6.770;2023-04-25T09:44:32;101262.16;;;14.55;66.96
3294;BME280;1659;51.470;6.770;2023-04-25T09:46:58;101259.06;;;14.39;66.01
3294;BME280;1659;51.470;6.770;2023-04-25T09:49:25;101262.66;;;14.38;65.83
3294;BME280;1659;51.470;6.770;2023-04-25T09:51:56;101273.75;;;14.20;64.32
3294;BME280;1659;51.470;6.770;2023-04-25T09:54:25;101265.69;;;14.88;64.68
3294;BME280;1659;51.470;6.770;2023-04-25T09:56:53;101273.94;;;15.68;62.40
3294;BME280;1659;51.470;6.770;2023-04-25T09:59:20;101264.75;;;16.05;62.66
3294;BME280;1659;51.470;6.770;2023-04-25T10:01:48;101256.41;;;16.16;61.61
3294;BME280;1659;51.470;6.770;2023-04-25T10:04:18;101271.91;;;16.05;59.24
3294;BME280;1659;51.470;6.770;2023-04-25T10:06:48;101280.94;;;16.01;59.97
3294;BME280;1659;51.470;6.770;2023-04-25T10:09:16;101269.50;;;15.97;60.53
3294;BME280;1659;51.470;6.770;2023-04-25T10:11:45;101275.59;;;15.73;60.93
3294;BME280;1659;51.470;6.770;2023-04-25T10:14:13;101271.44;;;15.64;61.93
3294;BME280;1659;51.470;6.770;2023-04-25T10:16:41;101277.38;;;16.00;61.74
3294;BME280;1659;51.470;6.770;2023-04-25T10:19:08;101282.28;;;16.39;59.92
3294;BME280;1659;51.470;6.770;2023-04-25T10:21:40;101285.44;;;16.26;59.84
3294;BME280;1659;51.470;6.770;2023-04-25T10:24:11;101275.03;;;16.68;59.95
3294;BME280;1659;51.470;6.770;2023-04-25T10:26:38;101275.69;;;17.24;58.55
3294;BME280;1659;51.470;6.770;2023-04-25T10:29:06;101269.81;;;17.82;57.58
3294;BME280;1659;51.470;6.770;2023-04-25T10:31:32;101271.16;;;17.93;57.88
3294;BME280;1659;51.470;6.770;2023-04-25T10:34:00;101276.06;;;18.04;57.89
3294;BME280;1659;51.470;6.770;2023-04-25T10:36:31;101277.59;;;17.66;58.45
3294;BME280;1659;51.470;6.770;2023-04-25T10:39:03;101289.31;;;16.92;59.63
3294;BME280;1659;51.470;6.770;2023-04-25T10:41:45;101289.94;;;16.23;60.42
3294;BME280;1659;51.470;6.770;2023-04-25T10:44:14;101299.75;;;15.66;60.95
3294;BME280;1659;51.470;6.770;2023-04-25T10:46:40;101316.75;;;14.71;60.97
3294;BME280;1659;51.470;6.770;2023-04-25T10:49:07;101326.75;;;13.90;61.63
3294;BME280;1659;51.470;6.770;2023-04-25T10:51:36;101334.31;;;13.26;61.87
3294;BME280;1659;51.470;6.770;2023-04-25T10:54:04;101324.69;;;12.76;62.98
3294;BME280;1659;51.470;6.770;2023-04-25T10:56:31;101327.22;;;12.33;63.59
3294;BME280;1659;51.470;6.770;2023-04-25T10:59:06;101327.91;;;11.91;64.02
3294;BME280;1659;51.470;6.770;2023-04-25T11:01:38;101322.13;;;11.61;64.71
3294;BME280;1659;51.470;6.770;2023-04-25T11:04:05;101335.66;;;11.40;65.25
3294;BME280;1659;51.470;6.770;2023-04-25T11:06:41;101326.91;;;11.34;65.11
3294;BME280;1659;51.470;6.770;2023-04-25T11:09:11;101332.19;;;11.36;65.81
3294;BME280;1659;51.470;6.770;2023-04-25T11:11:39;101332.09;;;11.41;65.64
3294;BME280;1659;51.470;6.770;2023-04-25T11:14:05;101333.00;;;11.41;65.29
3294;BME280;1659;51.470;6.770;2023-04-25T11:16:32;101340.13;;;11.36;64.96
3294;BME280;1659;51.470;6.770;2023-04-25T11:19:00;101339.16;;;11.42;65.11
3294;BME280;1659;51.470;6.770;2023-04-25T11:21:27;101336.47;;;11.46;64.70
3294;BME280;1659;51.470;6.770;2023-04-25T11:23:54;101329.28;;;11.53;64.34
3294;BME280;1659;51.470;6.770;2023-04-25T11:26:23;101328.38;;;11.57;64.36
3294;BME280;1659;51.470;6.770;2023-04-25T11:28:50;101329.16;;;11.64;63.87
3294;BME280;1659;51.470;6.770;2023-04-25T11:31:20;101332.63;;;11.69;64.28
3294;BME280;1659;51.470;6.770;2023-04-25T11:33:46;101335.31;;;11.66;64.62
3294;BME280;1659;51.470;6.770;2023-04-25T11:36:14;101337.03;;;11.67;64.68
3294;BME280;1659;51.470;6.770;2023-04-25T11:38:41;101345.03;;;11.64;64.38
3294;BME280;1659;51.470;6.770;2023-04-25T11:41:08;101339.19;;;11.39;64.44
3294;BME280;1659;51.470;6.770;2023-04-25T11:43:34;101348.22;;;11.22;64.46
3294;BME280;1659;51.470;6.770;2023-04-25T11:46:01;101358.03;;;11.12;64.63
3294;BME280;1659;51.470;6.770;2023-04-25T11:48:36;101357.28;;;11.01;65.13
3294;BME280;1659;51.470;6.770;2023-04-25T11:51:04;101354.94;;;10.73;65.11
3294;BME280;1659;51.470;6.770;2023-04-25T11:53:32;101363.13;;;10.43;65.95
3294;BME280;1659;51.470;6.770;2023-04-25T11:55:58;101344.81;;;10.16;66.41
3294;BME280;1659;51.470;6.770;2023-04-25T11:58:26;101347.63;;;9.96;66.63
3294;BME280;1659;51.470;6.770;2023-04-25T12:00:53;101349.50;;;9.79;66.98
3294;BME280;1659;51.470;6.770;2023-04-25T12:03:19;101363.63;;;9.70;67.37
3294;BME280;1659;51.470;6.770;2023-04-25T12:05:49;101358.28;;;9.76;67.82
3294;BME280;1659;51.470;6.770;2023-04-25T12:08:16;101356.34;;;10.06;67.79
3294;BME280;1659;51.470;6.770;2023-04-25T12:10:45;101350.00;;;10.35;67.54
3294;BME280;1659;51.470;6.770;2023-04-25T12:13:19;101352.41;;;10.60;67.30
3294;BME280;1659;51.470;6.770;2023-04-25T12:15:46;101354.81;;;10.86;67.05
3294;BME280;1659;51.470;6.770;2023-04-25T12:18:12;101342.59;;;11.48;66.72
3294;BME280;1659;51.470;6.770;2023-04-25T12:20:39;101349.06;;;12.47;65.28
3294;BME280;1659;51.470;6.770;2023-04-25T12:23:06;101342.69;;;13.51;63.99
3294;BME280;1659;51.470;6.770;2023-04-25T12:25:35;101338.38;;;14.22;62.73
3294;BME280;1659;51.470;6.770;2023-04-25T12:28:13;101334.88;;;14.88;61.32
3294;BME280;1659;51.470;6.770;2023-04-25T12:30:57;101333.38;;;15.71;60.92
3294;BME280;1659;51.470;6.770;2023-04-25T12:33:24;101322.31;;;16.39;59.88
3294;BME280;1659;51.470;6.770;2023-04-25T12:35:52;101326.66;;;16.94;58.84
3294;BME280;1659;51.470;6.770;2023-04-25T12:38:22;101316.41;;;17.30;58.46
3294;BME280;1659;51.470;6.770;2023-04-25T12:40:49;101322.28;;;17.86;57.95
3294;BME280;1659;51.470;6.770;2023-04-25T12:43:17;101319.28;;;18.16;56.84
3294;BME280;1659;51.470;6.770;2023-04-25T12:45:44;101321.63;;;18.01;56.12
3294;BME280;1659;51.470;6.770;2023-04-25T12:48:11;101320.19;;;17.70;55.74
3294;BME280;1659;51.470;6.770;2023-04-25T12:50:38;101328.41;;;17.18;56.73
3294;BME280;1659;51.470;6.770;2023-04-25T12:53:04;101344.47;;;16.67;57.62
3294;BME280;1659;51.470;6.770;2023-04-25T12:55:31;101353.94;;;15.95;58.58
3294;BME280;1659;51.470;6.770;2023-04-25T12:57:58;101361.50;;;15.20;59.65
3294;BME280;1659;51.470;6.770;2023-04-25T13:00:25;101365.44;;;14.38;60.75
3294;BME280;1659;51.470;6.770;2023-04-25T13:02:52;101372.41;;;13.68;61.56
3294;BME280;1659;51.470;6.770;2023-04-25T13:05:19;101374.06;;;13.29;62.73
3294;BME280;1659;51.470;6.770;2023-04-25T13:07:46;101373.78;;;12.97;62.82
3294;BME280;1659;51.470;6.770;2023-04-25T13:10:12;101377.78;;;12.73;63.42
3294;BME280;1659;51.470;6.770;2023-04-25T13:12:39;101373.84;;;12.46;63.48
3294;BME280;1659;51.470;6.770;2023-04-25T13:15:06;101376.53;;;12.43;63.34
3294;BME280;1659;51.470;6.770;2023-04-25T13:17:35;101371.88;;;12.57;62.91
3294;BME280;1659;51.470;6.770;2023-04-25T13:20:02;101368.19;;;13.14;62.66
3294;BME280;1659;51.470;6.770;2023-04-25T13:22:31;101363.84;;;13.94;60.61
3294;BME280;1659;51.470;6.770;2023-04-25T13:24:57;101361.72;;;14.81;59.54
3294;BME280;1659;51.470;6.770;2023-04-25T13:27:24;101353.03;;;15.66;58.33
3294;BME280;1659;51.470;6.770;2023-04-25T13:29:51;101354.69;;;16.29;56.94
3294;BME280;1659;51.470;6.770;2023-04-25T13:32:17;101352.47;;;16.67;56.75
3294;BME280;1659;51.470;6.770;2023-04-25T13:34:45;101363.13;;;17.18;55.84
3294;BME280;1659;51.470;6.770;2023-04-25T13:37:12;101354.72;;;17.53;54.29
3294;BME280;1659;51.470;6.770;2023-04-25T13:39:38;101349.38;;;17.75;54.61
3294;BME280;1659;51.470;6.770;2023-04-25T13:42:05;101348.16;;;18.07;53.49
3294;BME280;1659;51.470;6.770;2023-04-25T13:44:32;101345.81;;;18.20;52.70
3294;BME280;1659;51.470;6.770;2023-04-25T13:46:58;101358.41;;;17.72;52.99
3294;BME280;1659;51.470;6.770;2023-04-25T13:49:26;101351.91;;;17.09;53.27